Time;durP1;ratioP1;P1;durP2;ratioP2;P2;SDS_P1;SDS_P2;PMS_P1;PMS_P2;Temp;Humidity;BMP_temperature;BMP_pressure;BME280_temperature;BME280_humidity;BME280_pressure;Samples;Min_cycle;Max_cycle;Signal;HPM_P1;HPM_P2
2022/03/14 00:01:59;;;;;;;;;;;77.40;1689.60;;;;;;5090590;28;19935;-76
2022/03/14 00:04:25;;;;;;;;;;;77.20;1689.60;;;;;;5089945;28;19912;-76
2022/03/14 00:06:51;;;;;;;;;;;77.30;1715.20;;;;;;5085611;28;19912;-76
2022/03/14 00:09:17;;;;;;;;;;;77.30;1715.20;;;;;;5081643;28;19944;-76
2022/03/14 00:11:43;;;;;;;;;;;77.20;1740.80;;;;;;5082439;28;19947;-76
2022/03/14 00:14:09;;;;;;;;;;;77.20;1740.80;;;;;;5087622;28;19943;-76
2022/03/14 00:16:45;;;;;;;;;;;77.00;1740.80;;;;;;5083315;28;20306;-77
2022/03/14 00:19:13;;;;;;;;;;;77.10;1740.80;;;;;;5085896;28;20248;-76
2022/03/14 00:21:39;;;;;;;;;;;77.20;1740.80;;;;;;5084838;28;19917;-77
2022/03/14 00:24:08;;;;;;;;;;;76.90;1740.80;;;;;;5084326;28;19912;-76
2022/03/14 00:26:34;;;;;;;;;;;76.80;1740.80;;;;;;5085921;28;19935;-76
2022/03/14 00:29:00;;;;;;;;;;;76.90;1740.80;;;;;;5084997;28;19904;-76
2022/03/14 00:31:25;;;;;;;;;;;77.10;1715.20;;;;;;5083905;28;19919;-76
2022/03/14 00:33:52;;;;;;;;;;;77.10;1715.20;;;;;;5085700;28;20359;-77
2022/03/14 00:36:19;;;;;;;;;;;77.10;1715.20;;;;;;5084346;28;19904;-76
2022/03/14 00:38:45;;;;;;;;;;;76.90;1740.80;;;;;;5085866;28;19904;-76
2022/03/14 00:41:12;;;;;;;;;;;76.80;1766.40;;;;;;5083558;28;19909;-76
2022/03/14 00:43:38;;;;;;;;;;;51.90;1766.40;;;;;;5086343;28;19998;-77
2022/03/14 00:46:04;;;;;;;;;;;51.80;1792.00;;;;;;5084807;28;19955;-76
2022/03/14 00:48:32;;;;;;;;;;;51.40;1792.00;;;;;;5083111;28;19919;-76
2022/03/14 00:50:58;;;;;;;;;;;26.50;1792.00;;;;;;5084865;28;19919;-76
2022/03/14 00:53:23;;;;;;;;;;;26.50;1817.60;;;;;;5084701;28;20256;-76
2022/03/14 00:55:49;;;;;;;;;;;51.30;1843.20;;;;;;5083578;28;20412;-76
2022/03/14 00:58:14;;;;;;;;;;;51.70;1817.60;;;;;;5085519;28;19904;-76
2022/03/14 01:00:40;;;;;;;;;;;51.80;1792.00;;;;;;5083847;28;19904;-76
2022/03/14 01:03:06;;;;;;;;;;;51.70;1792.00;;;;;;5085049;28;19950;-76
2022/03/14 01:05:31;;;;;;;;;;;51.40;1817.60;;;;;;5085412;28;19947;-76
2022/03/14 01:07:57;;;;;;;;;;;51.70;1817.60;;;;;;5082392;28;20009;-76
2022/03/14 01:10:23;;;;;;;;;;;51.80;1792.00;;;;;;5084124;28;20319;-76
2022/03/14 01:12:49;;;;;;;;;;;51.80;1792.00;;;;;;5084824;28;19904;-76
2022/03/14 01:15:15;;;;;;;;;;;52.00;1792.00;;;;;;5082841;28;19904;-76
2022/03/14 01:17:40;;;;;;;;;;;52.10;1766.40;;;;;;5084470;28;19904;-76
2022/03/14 01:20:08;;;;;;;;;;;52.00;1792.00;;;;;;5084212;28;19954;-76
2022/03/14 01:22:34;;;;;;;;;;;52.10;1817.60;;;;;;5082837;28;19973;-76
2022/03/14 01:25:00;;;;;;;;;;;51.80;1792.00;;;;;;5085584;28;19904;-76
2022/03/14 01:27:25;;;;;;;;;;;51.60;1817.60;;;;;;5084941;28;19905;-76
2022/03/14 01:29:51;;;;;;;;;;;51.40;1817.60;;;;;;5084133;28;19904;-76
2022/03/14 01:32:16;;;;;;;;;;;51.30;1843.20;;;;;;5084507;28;20359;-76
2022/03/14 01:34:42;;;;;;;;;;;51.20;1843.20;;;;;;5083393;28;19911;-76
2022/03/14 01:37:08;;;;;;;;;;;26.50;1843.20;;;;;;5083253;28;19904;-76
2022/03/14 01:39:34;;;;;;;;;;;26.50;1817.60;;;;;;5084626;28;19926;-76
2022/03/14 01:42:00;;;;;;;;;;;26.30;1843.20;;;;;;5082737;28;20341;-77
2022/03/14 01:44:25;;;;;;;;;;;25.80;1868.80;;;;;;5083384;28;19904;-76
2022/03/14 01:46:52;;;;;;;;;;;25.70;1894.40;;;;;;5084815;28;19947;-76
2022/03/14 01:49:18;;;;;;;;;;;0.80;1920.00;;;;;;5085392;28;19962;-77
2022/03/14 01:51:44;;;;;;;;;;;25.60;1920.00;;;;;;5080944;28;19952;-76
2022/03/14 01:54:10;;;;;;;;;;;25.70;1920.00;;;;;;5084063;28;19908;-76
2022/03/14 01:56:38;;;;;;;;;;;25.60;1920.00;;;;;;5084201;28;19911;-76
2022/03/14 01:59:04;;;;;;;;;;;25.70;1920.00;;;;;;5082937;28;19958;-76
2022/03/14 02:01:29;;;;;;;;;;;25.70;1945.60;;;;;;5083764;28;19957;-76
2022/03/14 02:03:55;;;;;;;;;;;25.80;1920.00;;;;;;5085186;28;19954;-76
2022/03/14 02:06:20;;;;;;;;;;;25.90;1920.00;;;;;;5083518;28;19908;-76
2022/03/14 02:08:46;;;;;;;;;;;25.90;1920.00;;;;;;5084211;28;19904;-76
2022/03/14 02:11:12;;;;;;;;;;;25.90;1920.00;;;;;;5084825;28;20329;-76
2022/03/14 02:13:37;;;;;;;;;;;26.00;1894.40;;;;;;5081878;28;19908;-76
2022/03/14 02:16:03;;;;;;;;;;;26.30;1894.40;;;;;;5083285;28;19911;-76
2022/03/14 02:18:28;;;;;;;;;;;26.30;1894.40;;;;;;5084067;28;19959;-76
2022/03/14 02:20:54;;;;;;;;;;;26.20;1868.80;;;;;;5081555;28;19946;-76
2022/03/14 02:23:20;;;;;;;;;;;26.30;1868.80;;;;;;5083771;28;20052;-76
2022/03/14 02:25:50;;;;;;;;;;;26.50;1843.20;;;;;;5083789;28;20351;-75
2022/03/14 02:28:16;;;;;;;;;;;26.50;1843.20;;;;;;5083507;28;20333;-76
2022/03/14 02:30:42;;;;;;;;;;;51.20;1894.40;;;;;;5081428;28;20273;-77
2022/03/14 02:33:08;;;;;;;;;;;51.50;1894.40;;;;;;5082658;28;20352;-76
2022/03/14 02:35:34;;;;;;;;;;;51.60;1868.80;;;;;;5083093;28;19911;-76
2022/03/14 02:38:00;;;;;;;;;;;51.40;1868.80;;;;;;5081140;28;20029;-76
2022/03/14 02:40:25;;;;;;;;;;;51.30;1868.80;;;;;;5083811;28;20375;-76
2022/03/14 02:42:51;;;;;;;;;;;26.50;1843.20;;;;;;5080775;28;20295;-76
2022/03/14 02:45:17;;;;;;;;;;;26.50;1843.20;;;;;;5083424;28;20003;-76
2022/03/14 02:47:43;;;;;;;;;;;26.40;1843.20;;;;;;5082491;28;19940;-76
2022/03/14 02:50:09;;;;;;;;;;;26.10;1868.80;;;;;;5082089;28;20380;-76
2022/03/14 02:52:35;;;;;;;;;;;25.80;1894.40;;;;;;5083285;28;19950;-76
2022/03/14 02:55:00;;;;;;;;;;;25.60;1920.00;;;;;;5081426;28;20355;-77
2022/03/14 02:57:27;;;;;;;;;;;0.70;1971.20;;;;;;5083908;28;19904;-76
2022/03/14 02:59:53;;;;;;;;;;;0.70;1971.20;;;;;;5082936;28;20371;-76
2022/03/14 03:02:22;;;;;;;;;;;0.80;1971.20;;;;;;5081141;28;19945;-77
2022/03/14 03:04:47;;;;;;;;;;;0.80;1971.20;;;;;;5082452;28;19904;-76
2022/03/14 03:07:13;;;;;;;;;;;0.60;1996.80;;;;;;5084053;28;20241;-76
2022/03/14 03:09:38;;;;;;;;;;;0.30;2048.00;;;;;;5082587;28;19904;-76
2022/03/14 03:12:13;;;;;;;;;;;0.10;2073.60;;;;;;5084049;28;19919;-76
2022/03/14 03:14:39;;;;;;;;;;;0.00;2099.20;;;;;;5083231;28;20002;-76
2022/03/14 03:17:05;;;;;;;;;;;12.90;2099.20;;;;;;5082421;28;19995;-77
2022/03/14 03:19:31;;;;;;;;;;;0.00;2124.80;;;;;;5081856;28;20281;-77
2022/03/14 03:21:56;;;;;;;;;;;0.20;2124.80;;;;;;5084182;28;19915;-76
2022/03/14 03:24:22;;;;;;;;;;;0.40;2124.80;;;;;;5082025;28;19915;-76
2022/03/14 03:26:47;;;;;;;;;;;0.80;2099.20;;;;;;5083712;28;20395;-76
2022/03/14 03:29:13;;;;;;;;;;;0.90;2073.60;;;;;;5083582;28;19927;-76
2022/03/14 03:31:38;;;;;;;;;;;0.90;2073.60;;;;;;5082024;28;19927;-76
2022/03/14 03:34:04;;;;;;;;;;;0.60;2073.60;;;;;;5084552;28;19904;-76
2022/03/14 03:36:30;;;;;;;;;;;0.80;2073.60;;;;;;5083016;28;20023;-76
2022/03/14 03:38:58;;;;;;;;;;;0.60;2073.60;;;;;;5082647;28;19904;-76
2022/03/14 03:41:24;;;;;;;;;;;0.60;2099.20;;;;;;5082864;28;20003;-76
2022/03/14 03:43:49;;;;;;;;;;;0.40;2099.20;;;;;;5082741;28;20324;-76
2022/03/14 03:46:15;;;;;;;;;;;0.40;2124.80;;;;;;5082674;28;20263;-76
2022/03/14 03:48:41;;;;;;;;;;;0.50;2124.80;;;;;;5083684;28;19911;-77
2022/03/14 03:51:06;;;;;;;;;;;0.70;2099.20;;;;;;5081858;28;19939;-76
2022/03/14 03:53:32;;;;;;;;;;;0.80;2099.20;;;;;;5081847;28;19912;-76
2022/03/14 03:55:58;;;;;;;;;;;0.90;2073.60;;;;;;5083834;28;19905;-76
2022/03/14 03:58:23;;;;;;;;;;;25.60;2073.60;;;;;;5081749;28;19905;-77
2022/03/14 04:00:50;;;;;;;;;;;25.70;2073.60;;;;;;5083566;28;20359;-76
2022/03/14 04:03:19;;;;;;;;;;;25.80;2048.00;;;;;;5082826;28;20468;-76
2022/03/14 04:05:45;;;;;;;;;;;25.90;2048.00;;;;;;5082608;28;19904;-77
2022/03/14 04:08:11;;;;;;;;;;;25.90;2048.00;;;;;;5082556;28;19911;-77
2022/03/14 04:10:37;;;;;;;;;;;25.80;2048.00;;;;;;5081066;28;19912;-76
2022/03/14 04:13:03;;;;;;;;;;;0.90;2048.00;;;;;;5082628;28;19905;-76
2022/03/14 04:15:29;;;;;;;;;;;25.70;2048.00;;;;;;5083735;28;19908;-76
2022/03/14 04:17:59;;;;;;;;;;;25.60;2073.60;;;;;;5084801;28;19951;-77
2022/03/14 04:20:25;;;;;;;;;;;0.70;2099.20;;;;;;5086157;28;19908;-76
2022/03/14 04:22:51;;;;;;;;;;;0.70;2099.20;;;;;;5085774;28;20383;-76
2022/03/14 04:25:16;;;;;;;;;;;0.30;2150.40;;;;;;5084726;28;20369;-77
2022/03/14 04:27:42;;;;;;;;;;;0.20;2176.00;;;;;;5086104;28;19912;-76
2022/03/14 04:30:08;;;;;;;;;;;0.10;2201.60;;;;;;5083244;28;20033;-76
2022/03/14 04:32:34;;;;;;;;;;;0.10;2201.60;;;;;;5077685;28;20325;-81
2022/03/14 04:35:00;;;;;;;;;;;0.30;2201.60;;;;;;5085946;28;19966;-79
2022/03/14 04:37:25;;;;;;;;;;;0.40;2201.60;;;;;;5085723;28;19904;-92
2022/03/14 04:39:51;;;;;;;;;;;0.50;2201.60;;;;;;5084861;28;19912;-77
2022/03/14 04:42:19;;;;;;;;;;;0.50;2201.60;;;;;;5087911;28;19904;-78
2022/03/14 04:44:45;;;;;;;;;;;0.60;2201.60;;;;;;5086756;28;19908;-77
2022/03/14 04:47:10;;;;;;;;;;;0.40;2201.60;;;;;;5085460;28;20239;-79
2022/03/14 04:49:36;;;;;;;;;;;0.30;2201.60;;;;;;5085014;28;19916;-78
2022/03/14 04:52:01;;;;;;;;;;;0.30;2201.60;;;;;;5083868;28;19927;-79
2022/03/14 04:54:27;;;;;;;;;;;0.40;2201.60;;;;;;5083330;28;19934;-80
2022/03/14 04:56:54;;;;;;;;;;;0.50;2201.60;;;;;;5085017;28;19973;-78
2022/03/14 04:59:20;;;;;;;;;;;0.50;2201.60;;;;;;5085957;28;19954;-79
2022/03/14 05:01:46;;;;;;;;;;;0.40;2201.60;;;;;;5085752;28;19907;-78
2022/03/14 05:04:11;;;;;;;;;;;0.30;2201.60;;;;;;5084372;28;20387;-78
2022/03/14 05:06:37;;;;;;;;;;;0.10;2201.60;;;;;;5084748;28;19911;-77
2022/03/14 05:09:03;;;;;;;;;;;0.00;2201.60;;;;;;5085617;28;19920;-78
2022/03/14 05:11:28;;;;;;;;;;;12.90;2201.60;;;;;;5083524;28;19966;-78
2022/03/14 05:13:54;;;;;;;;;;;12.90;2201.60;;;;;;5085046;28;19938;-78
2022/03/14 05:16:20;;;;;;;;;;;0.00;2201.60;;;;;;5085293;28;19966;-78
2022/03/14 05:18:46;;;;;;;;;;;0.20;2201.60;;;;;;5083639;28;20267;-78
2022/03/14 05:21:13;;;;;;;;;;;0.30;2201.60;;;;;;5084559;28;19915;-78
2022/03/14 05:23:39;;;;;;;;;;;0.30;2201.60;;;;;;5084821;28;19915;-78
2022/03/14 05:26:05;;;;;;;;;;;0.10;2201.60;;;;;;5086366;28;19912;-78
2022/03/14 05:28:30;;;;;;;;;;;0.10;2201.60;;;;;;5085243;28;19904;-78
2022/03/14 05:30:56;;;;;;;;;;;0.10;2201.60;;;;;;5085674;28;19976;-78
2022/03/14 05:33:22;;;;;;;;;;;0.10;2201.60;;;;;;5085068;28;19904;-78
2022/03/14 05:35:48;;;;;;;;;;;0.20;2201.60;;;;;;5083687;28;19911;-78
2022/03/14 05:38:14;;;;;;;;;;;0.40;2201.60;;;;;;5081096;28;19904;-78
2022/03/14 05:40:40;;;;;;;;;;;0.50;2201.60;;;;;;5084813;28;20423;-78
2022/03/14 05:43:07;;;;;;;;;;;0.50;2201.60;;;;;;5085087;28;20363;-78
2022/03/14 05:45:32;;;;;;;;;;;0.70;2201.60;;;;;;5083300;28;19908;-78
2022/03/14 05:47:58;;;;;;;;;;;0.80;2201.60;;;;;;5083720;28;19911;-78
2022/03/14 05:50:24;;;;;;;;;;;25.60;2201.60;;;;;;5081628;28;20259;-77
2022/03/14 05:52:50;;;;;;;;;;;25.70;2201.60;;;;;;5085703;28;19919;-79
2022/03/14 05:55:16;;;;;;;;;;;26.00;2201.60;;;;;;5086760;28;19904;-77
2022/03/14 05:57:41;;;;;;;;;;;26.00;2201.60;;;;;;5082418;28;19927;-78
2022/03/14 06:00:08;;;;;;;;;;;26.10;2201.60;;;;;;5085901;28;19947;-78
2022/03/14 06:02:35;;;;;;;;;;;26.10;2201.60;;;;;;5082047;28;19926;-78
2022/03/14 06:05:00;;;;;;;;;;;26.20;2201.60;;;;;;5081871;28;19915;-78
2022/03/14 06:07:26;;;;;;;;;;;26.40;2201.60;;;;;;5084507;28;19912;-78
2022/03/14 06:09:52;;;;;;;;;;;26.50;2201.60;;;;;;5082733;28;20371;-78
2022/03/14 06:12:24;;;;;;;;;;;51.30;2227.20;;;;;;5083627;28;19957;-78
2022/03/14 06:14:51;;;;;;;;;;;51.50;2227.20;;;;;;5084576;28;19904;-78
2022/03/14 06:17:16;;;;;;;;;;;51.60;2227.20;;;;;;5085001;28;19904;-77
2022/03/14 06:19:42;;;;;;;;;;;51.70;2227.20;;;;;;5082637;28;19954;-77
2022/03/14 06:22:08;;;;;;;;;;;51.80;2176.00;;;;;;5080867;28;20360;-78
2022/03/14 06:24:33;;;;;;;;;;;51.90;2176.00;;;;;;5083546;28;20352;-77
2022/03/14 06:26:59;;;;;;;;;;;52.00;2099.20;;;;;;5085621;28;19927;-78
2022/03/14 06:29:24;;;;;;;;;;;76.80;2099.20;;;;;;5083901;28;19911;-78
2022/03/14 06:31:50;;;;;;;;;;;76.90;2073.60;;;;;;5084077;28;19919;-77
2022/03/14 06:34:16;;;;;;;;;;;77.10;2048.00;;;;;;5082937;28;19943;-77
2022/03/14 06:36:42;;;;;;;;;;;77.30;2022.40;;;;;;5079196;28;19904;-77
2022/03/14 06:39:07;;;;;;;;;;;77.40;1996.80;;;;;;5083861;28;19919;-77
2022/03/14 06:41:35;;;;;;;;;;;77.60;1971.20;;;;;;5085963;28;19904;-78
2022/03/14 06:44:01;;;;;;;;;;;77.70;1971.20;;;;;;5084029;28;19911;-77
2022/03/14 06:46:26;;;;;;;;;;;102.50;1945.60;;;;;;5082768;28;19905;-78
2022/03/14 06:48:52;;;;;;;;;;;102.60;1920.00;;;;;;5082519;28;19965;-77
2022/03/14 06:51:19;;;;;;;;;;;102.80;1894.40;;;;;;5083866;28;19963;-78
2022/03/14 06:53:44;;;;;;;;;;;102.90;1868.80;;;;;;5084281;28;19955;-77
2022/03/14 06:56:10;;;;;;;;;;;103.00;1868.80;;;;;;5082698;28;19905;-77
2022/03/14 06:58:36;;;;;;;;;;;103.20;1843.20;;;;;;5084652;28;19904;-77
2022/03/14 07:01:01;;;;;;;;;;;103.20;1817.60;;;;;;5083563;28;19965;-77
2022/03/14 07:03:27;;;;;;;;;;;103.30;1792.00;;;;;;5084379;28;19926;-79
2022/03/14 07:05:53;;;;;;;;;;;128.10;1817.60;;;;;;5079481;28;19915;-78
2022/03/14 07:08:19;;;;;;;;;;;128.40;1792.00;;;;;;5072674;28;19904;-76
2022/03/14 07:10:44;;;;;;;;;;;128.50;1766.40;;;;;;5075272;28;19916;-76
2022/03/14 07:13:10;;;;;;;;;;;128.80;1740.80;;;;;;5083322;28;19927;-77
2022/03/14 07:15:36;;;;;;;;;;;128.80;1715.20;;;;;;5079593;28;20272;-77
2022/03/14 07:18:01;;;;;;;;;;;153.60;1715.20;;;;;;5082638;28;20016;-77
2022/03/14 07:20:27;;;;;;;;;;;153.90;1689.60;;;;;;5089045;28;19977;-78
2022/03/14 07:23:00;;;;;;;;;;;154.00;1664.00;;;;;;5082890;28;19912;-78
2022/03/14 07:25:27;;;;;;;;;;;154.00;1638.40;;;;;;5084581;28;20322;-79
2022/03/14 07:27:54;;;;;;;;;;;154.10;1638.40;;;;;;5083361;28;20359;-78
2022/03/14 07:30:21;;;;;;;;;;;154.20;1612.80;;;;;;5080139;28;19904;-77
2022/03/14 07:32:47;;;;;;;;;;;154.50;1612.80;;;;;;5077333;28;19939;-75
2022/03/14 07:35:13;;;;;;;;;;;154.50;1587.20;;;;;;5073284;28;19983;-76
2022/03/14 07:37:39;;;;;;;;;;;179.30;1587.20;;;;;;5072250;28;20344;-75
2022/03/14 07:40:06;;;;;;;;;;;179.40;1561.60;;;;;;5078511;28;19911;-75
2022/03/14 07:42:32;;;;;;;;;;;179.40;1561.60;;;;;;5081866;28;20390;-77
2022/03/14 07:44:57;;;;;;;;;;;179.30;1510.40;;;;;;5071684;28;19955;-76
2022/03/14 07:47:24;;;;;;;;;;;179.40;1510.40;;;;;;5081774;28;20379;-78
2022/03/14 07:49:49;;;;;;;;;;;179.70;1510.40;;;;;;5083355;28;19916;-80
2022/03/14 07:52:15;;;;;;;;;;;179.70;1484.80;;;;;;5083645;28;19927;-77
2022/03/14 07:54:40;;;;;;;;;;;179.90;1484.80;;;;;;5077251;28;20356;-78
2022/03/14 07:57:06;;;;;;;;;;;179.90;1459.20;;;;;;5076143;28;19911;-77
2022/03/14 07:59:31;;;;;;;;;;;179.80;1459.20;;;;;;5076021;28;20025;-79
2022/03/14 08:01:57;;;;;;;;;;;179.90;1433.60;;;;;;5076096;28;19904;-78
2022/03/14 08:04:23;;;;;;;;;;;180.00;1433.60;;;;;;5075788;28;19904;-78
2022/03/14 08:06:49;;;;;;;;;;;180.10;1433.60;;;;;;5077037;28;19905;-78
2022/03/14 08:09:15;;;;;;;;;;;180.00;1408.00;;;;;;5075867;28;19908;-77
2022/03/14 08:11:41;;;;;;;;;;;204.80;1408.00;;;;;;5075734;28;19913;-78
2022/03/14 08:14:07;;;;;;;;;;;204.90;1382.40;;;;;;5080462;28;19915;-78
2022/03/14 08:16:33;;;;;;;;;;;204.80;1408.00;;;;;;5080271;28;19912;-76
2022/03/14 08:18:58;;;;;;;;;;;205.00;1408.00;;;;;;5085267;28;19908;-76
2022/03/14 08:21:24;;;;;;;;;;;205.00;1382.40;;;;;;5084357;28;19984;-82
2022/03/14 08:23:50;;;;;;;;;;;205.00;1382.40;;;;;;5085415;28;19967;-78
2022/03/14 08:26:17;;;;;;;;;;;205.20;1382.40;;;;;;5086126;28;19985;-78
2022/03/14 08:28:43;;;;;;;;;;;205.20;1382.40;;;;;;5075378;28;19908;-78
2022/03/14 08:31:09;;;;;;;;;;;205.40;1382.40;;;;;;5075316;28;19919;-78
2022/03/14 08:33:39;;;;;;;;;;;205.60;1382.40;;;;;;5075332;28;19909;-78
2022/03/14 08:36:06;;;;;;;;;;;205.60;1382.40;;;;;;5075143;28;19905;-79
2022/03/14 08:38:31;;;;;;;;;;;205.70;1382.40;;;;;;5076609;28;19905;-78
2022/03/14 08:40:57;;;;;;;;;;;230.50;1356.80;;;;;;5075217;28;19911;-78
2022/03/14 08:43:23;;;;;;;;;;;230.50;1331.20;;;;;;5074891;28;20283;-77
2022/03/14 08:45:48;;;;;;;;;;;230.40;1331.20;;;;;;5075100;28;19905;-76
2022/03/14 08:48:14;;;;;;;;;;;230.40;1331.20;;;;;;5074848;28;19911;-75
2022/03/14 08:50:42;;;;;;;;;;;230.70;1331.20;;;;;;5074268;28;19917;-78
2022/03/14 08:53:08;;;;;;;;;;;230.50;1305.60;;;;;;5078785;28;19939;-76
2022/03/14 08:55:34;;;;;;;;;;;230.60;1305.60;;;;;;5085662;28;20351;-76
2022/03/14 08:58:00;;;;;;;;;;;230.60;1280.00;;;;;;5087091;28;20355;-78
2022/03/14 09:00:27;;;;;;;;;;;230.70;1305.60;;;;;;5094538;28;19904;-80
2022/03/14 09:02:53;;;;;;;;;;;230.80;1280.00;;;;;;5095083;28;19927;-79
2022/03/14 09:05:19;;;;;;;;;;;230.90;1280.00;;;;;;5094921;28;19988;-78
2022/03/14 09:07:45;;;;;;;;;;;231.00;1280.00;;;;;;5095066;28;20336;-76
2022/03/14 09:10:14;;;;;;;;;;;231.10;1280.00;;;;;;5094558;28;19911;-78
2022/03/14 09:12:42;;;;;;;;;;;231.10;1254.40;;;;;;5094769;28;19924;-77
2022/03/14 09:15:08;;;;;;;;;;;231.20;1254.40;;;;;;5094660;28;19911;-77
2022/03/14 09:17:35;;;;;;;;;;;231.20;1254.40;;;;;;5079938;28;19950;-78
2022/03/14 09:20:01;;;;;;;;;;;256.00;1254.40;;;;;;5085145;28;20409;-78
2022/03/14 09:22:27;;;;;;;;;;;256.20;1254.40;;;;;;5082631;28;19923;-77
2022/03/14 09:24:55;;;;;;;;;;;256.20;1228.80;;;;;;5078071;28;19908;-77
2022/03/14 09:27:21;;;;;;;;;;;256.30;1203.20;;;;;;5075633;28;19940;-78
2022/03/14 09:29:46;;;;;;;;;;;256.40;1203.20;;;;;;5075654;28;20272;-76
2022/03/14 09:32:13;;;;;;;;;;;256.50;1203.20;;;;;;5075435;28;19917;-77
2022/03/14 09:34:39;;;;;;;;;;;256.70;1203.20;;;;;;5075081;28;19904;-78
2022/03/14 09:37:05;;;;;;;;;;;256.60;1177.60;;;;;;5074235;28;19904;-78
2022/03/14 09:39:31;;;;;;;;;;;256.60;1177.60;;;;;;5075025;28;20276;-77
2022/03/14 09:41:58;;;;;;;;;;;256.70;1177.60;;;;;;5073737;28;19911;-79
2022/03/14 09:44:26;;;;;;;;;;;256.80;1152.00;;;;;;5074834;28;19974;-77
2022/03/14 09:46:54;;;;;;;;;;;256.90;1152.00;;;;;;5073611;28;19905;-77
2022/03/14 09:49:20;;;;;;;;;;;256.90;1126.40;;;;;;5074593;28;19908;-78
2022/03/14 09:51:46;;;;;;;;;;;281.70;1152.00;;;;;;5074745;28;19970;-77
2022/03/14 09:54:12;;;;;;;;;;;281.70;1152.00;;;;;;5073767;28;19954;-78
2022/03/14 09:56:41;;;;;;;;;;;281.70;1152.00;;;;;;5076688;28;19947;-77
2022/03/14 09:59:09;;;;;;;;;;;281.80;1126.40;;;;;;5088758;28;19915;-78
2022/03/14 10:01:35;;;;;;;;;;;281.80;1126.40;;;;;;5093775;28;19953;-79
2022/03/14 10:04:01;;;;;;;;;;;282.00;1126.40;;;;;;5093699;28;19904;-77
2022/03/14 10:06:26;;;;;;;;;;;282.10;1126.40;;;;;;5094828;28;19926;-77
2022/03/14 10:08:52;;;;;;;;;;;282.40;1126.40;;;;;;5094762;28;19908;-78
2022/03/14 10:11:18;;;;;;;;;;;307.20;1152.00;;;;;;5093267;28;20249;-79
2022/03/14 10:13:43;;;;;;;;;;;307.20;1126.40;;;;;;5094309;28;19927;-77
2022/03/14 10:16:09;;;;;;;;;;;307.20;1126.40;;;;;;5092480;28;19908;-77
2022/03/14 10:18:55;;;;;;;;;;;307.40;1126.40;;;;;;5093360;28;20282;-77
2022/03/14 10:21:30;;;;;;;;;;;307.50;1126.40;;;;;;5085178;28;19912;-77
2022/03/14 10:23:58;;;;;;;;;;;307.70;1126.40;;;;;;5082468;28;19905;-77
2022/03/14 10:26:25;;;;;;;;;;;307.70;1100.80;;;;;;5081582;28;19905;-76
2022/03/14 10:28:55;;;;;;;;;;;308.00;1100.80;;;;;;5084209;28;19908;-76
2022/03/14 10:31:31;;;;;;;;;;;307.90;1100.80;;;;;;5083098;28;19913;-77
2022/03/14 10:34:01;;;;;;;;;;;308.10;1075.20;;;;;;5082378;28;19905;-78
2022/03/14 10:36:37;;;;;;;;;;;307.90;1075.20;;;;;;5093034;28;20029;-77
2022/03/14 10:39:11;;;;;;;;;;;308.00;1075.20;;;;;;5092684;28;19912;-77
2022/03/14 10:41:39;;;;;;;;;;;333.10;1075.20;;;;;;5092950;28;20382;-78
2022/03/14 10:44:04;;;;;;;;;;;333.00;1075.20;;;;;;5094114;28;19930;-77
2022/03/14 10:46:30;;;;;;;;;;;333.10;1075.20;;;;;;5094163;28;19917;-77
2022/03/14 10:48:55;;;;;;;;;;;333.20;1100.80;;;;;;5094067;28;20331;-77
2022/03/14 10:51:21;;;;;;;;;;;333.50;1049.60;;;;;;5092188;28;19920;-77
2022/03/14 10:53:47;;;;;;;;;;;333.50;1075.20;;;;;;5093764;28;19955;-77
2022/03/14 10:56:14;;;;;;;;;;;333.50;1075.20;;;;;;5093687;28;19908;-78
2022/03/14 10:58:40;;;;;;;;;;;333.50;1049.60;;;;;;5083560;28;19915;-77
2022/03/14 11:01:06;;;;;;;;;;;333.70;1049.60;;;;;;5083860;28;19905;-76
2022/03/14 11:03:33;;;;;;;;;;;333.60;1049.60;;;;;;5082588;28;19904;-78
2022/03/14 11:06:09;;;;;;;;;;;333.70;1024.00;;;;;;5082687;28;19912;-79
2022/03/14 11:08:42;;;;;;;;;;;358.50;1024.00;;;;;;5075638;28;19987;-78
2022/03/14 11:11:12;;;;;;;;;;;358.50;1024.00;;;;;;5072597;28;19961;-79
2022/03/14 11:13:45;;;;;;;;;;;358.50;1024.00;;;;;;5072877;28;19904;-78
2022/03/14 11:16:20;;;;;;;;;;;358.50;1024.00;;;;;;5072479;28;19957;-78
2022/03/14 11:18:46;;;;;;;;;;;358.70;1024.00;;;;;;5072686;28;19909;-79
2022/03/14 11:21:15;;;;;;;;;;;358.80;998.40;;;;;;5072310;28;19917;-78
2022/03/14 11:23:46;;;;;;;;;;;358.80;1024.00;;;;;;5078888;28;19908;-78
2022/03/14 11:26:13;;;;;;;;;;;359.00;998.40;;;;;;5088790;28;19904;-76
2022/03/14 11:28:40;;;;;;;;;;;359.20;998.40;;;;;;5088297;28;19904;-77
2022/03/14 11:31:05;;;;;;;;;;;359.20;972.80;;;;;;5085029;28;20299;-78
2022/03/14 11:33:32;;;;;;;;;;;384.00;947.20;;;;;;5085220;28;19915;-78
2022/03/14 11:35:59;;;;;;;;;;;384.10;972.80;;;;;;5093005;28;19911;-77
2022/03/14 11:38:26;;;;;;;;;;;384.10;998.40;;;;;;5096469;28;19911;-77
2022/03/14 11:40:52;;;;;;;;;;;384.00;972.80;;;;;;5094669;28;20003;-78
2022/03/14 11:43:18;;;;;;;;;;;384.30;947.20;;;;;;5084953;28;19912;-77
2022/03/14 11:45:45;;;;;;;;;;;384.30;947.20;;;;;;5085515;28;20010;-77
2022/03/14 11:48:11;;;;;;;;;;;384.00;947.20;;;;;;5087565;28;20379;-77
2022/03/14 11:50:46;;;;;;;;;;;384.30;947.20;;;;;;5083418;28;19978;-77
2022/03/14 11:53:22;;;;;;;;;;;384.10;947.20;;;;;;5085829;28;19915;-78
2022/03/14 11:55:52;;;;;;;;;;;384.00;947.20;;;;;;5085584;28;19948;-77
2022/03/14 11:58:32;;;;;;;;;;;384.10;947.20;;;;;;5084519;28;19932;-77
2022/03/14 12:00:58;;;;;;;;;;;384.00;947.20;;;;;;5084192;28;19909;-77
2022/03/14 12:03:34;;;;;;;;;;;384.20;947.20;;;;;;5086688;28;19914;-76
2022/03/14 12:05:59;;;;;;;;;;;384.50;921.60;;;;;;5086836;28;19911;-78
2022/03/14 12:08:25;;;;;;;;;;;384.40;896.00;;;;;;5085717;28;19904;-78
2022/03/14 12:10:50;;;;;;;;;;;384.40;896.00;;;;;;5082246;28;19953;-78
2022/03/14 12:13:35;;;;;;;;;;;384.40;896.00;;;;;;5075514;28;19908;-79
2022/03/14 12:16:00;;;;;;;;;;;384.70;896.00;;;;;;5075547;28;19911;-78
2022/03/14 12:18:26;;;;;;;;;;;384.70;896.00;;;;;;5074623;28;19905;-79
2022/03/14 12:20:52;;;;;;;;;;;384.50;896.00;;;;;;5075356;28;20011;-78
2022/03/14 12:23:21;;;;;;;;;;;384.70;921.60;;;;;;5078526;28;19912;-78
2022/03/14 12:25:48;;;;;;;;;;;384.90;896.00;;;;;;5095827;28;19942;-78
2022/03/14 12:28:43;;;;;;;;;;;409.60;921.60;;;;;;5095520;28;19911;-78
2022/03/14 12:31:10;;;;;;;;;;;409.60;921.60;;;;;;5054345;28;19915;-78
2022/03/14 12:33:37;;;;;;;;;;;409.60;921.60;;;;;;5037644;28;19908;-78
2022/03/14 12:36:23;;;;;;;;;;;409.70;921.60;;;;;;5036652;28;19909;-77
2022/03/14 12:39:10;;;;;;;;;;;409.60;921.60;;;;;;5037702;28;20054;-78
2022/03/14 12:41:36;;;;;;;;;;;409.60;921.60;;;;;;5054239;28;20348;-78
2022/03/14 12:44:15;;;;;;;;;;;384.90;870.40;;;;;;5037550;28;19904;-78
2022/03/14 12:46:42;;;;;;;;;;;384.70;870.40;;;;;;5036947;28;19912;-79
2022/03/14 12:49:07;;;;;;;;;;;409.70;896.00;;;;;;5053185;28;20665;-78
2022/03/14 12:51:38;;;;;;;;;;;409.70;896.00;;;;;;5053432;28;19920;-78
2022/03/14 12:54:04;;;;;;;;;;;409.80;896.00;;;;;;5045253;28;19995;-77
2022/03/14 12:56:30;;;;;;;;;;;409.80;896.00;;;;;;5044065;28;20035;-76
2022/03/14 12:58:57;;;;;;;;;;;409.60;870.40;;;;;;5044591;28;20010;-77
2022/03/14 13:01:23;;;;;;;;;;;410.00;896.00;;;;;;5044242;28;20481;-78
2022/03/14 13:03:49;;;;;;;;;;;384.90;870.40;;;;;;5024836;28;19912;-77
2022/03/14 13:06:15;;;;;;;;;;;384.90;870.40;;;;;;5026653;28;20285;-79
2022/03/14 13:08:48;;;;;;;;;;;409.60;896.00;;;;;;5084022;28;19904;-77
2022/03/14 13:11:14;;;;;;;;;;;384.90;870.40;;;;;;5080140;28;19912;-78
2022/03/14 13:13:40;;;;;;;;;;;384.90;870.40;;;;;;5085830;28;19912;-78
2022/03/14 13:16:07;;;;;;;;;;;409.60;921.60;;;;;;5080208;28;19904;-78
2022/03/14 13:18:35;;;;;;;;;;;409.70;896.00;;;;;;5074319;28;19904;-79
2022/03/14 13:21:10;;;;;;;;;;;384.70;870.40;;;;;;5075779;28;20003;-78
2022/03/14 13:23:35;;;;;;;;;;;409.60;896.00;;;;;;5075361;28;19908;-78
2022/03/14 13:26:01;;;;;;;;;;;409.70;896.00;;;;;;5074330;28;19930;-78
2022/03/14 13:28:28;;;;;;;;;;;409.90;896.00;;;;;;5075148;28;20364;-78
2022/03/14 13:30:54;;;;;;;;;;;410.00;870.40;;;;;;5074184;28;19916;-78
2022/03/14 13:33:24;;;;;;;;;;;409.80;870.40;;;;;;5074174;28;19970;-78
2022/03/14 13:35:50;;;;;;;;;;;409.70;896.00;;;;;;5073984;28;19904;-78
2022/03/14 13:38:31;;;;;;;;;;;409.60;870.40;;;;;;5073944;28;19991;-79
2022/03/14 13:40:57;;;;;;;;;;;409.80;870.40;;;;;;5075375;28;19908;-78
2022/03/14 13:43:23;;;;;;;;;;;409.80;870.40;;;;;;5073984;28;19908;-78
2022/03/14 13:45:49;;;;;;;;;;;409.60;896.00;;;;;;5073828;28;19904;-77
2022/03/14 13:48:21;;;;;;;;;;;409.80;896.00;;;;;;5073728;28;19911;-78
2022/03/14 13:50:47;;;;;;;;;;;409.70;896.00;;;;;;5074652;28;20003;-78